Aviation Digital Data Service (ADDS)

Output produced by METARs form (0614 UTC 25 July 2016)
found at http://www.aviationweather.gov/adds/metars/
 
KPIA 250536Z 2506/2606 25005KT P6SM -RA VCTS SCT015CB BKN050 
     FM250800 32005KT P6SM SCT015 BKN120 
     FM251000 35005KT 4SM BR SCT015 BKN250 
     FM251300 36008KT P6SM SCT040